Time;durP1;ratioP1;P1;durP2;ratioP2;P2;SDS_P1;SDS_P2;PMS_P1;PMS_P2;Temp;Humidity;BMP_temperature;BMP_pressure;BME280_temperature;BME280_humidity;BME280_pressure;Samples;Min_cycle;Max_cycle;Signal;HPM_P1;HPM_P2
2022/02/17 00:01:41;;;;;;;0.85;0.40;;;13.10;99.90;;;;;;5134840;27;20399;-82
2022/02/17 00:04:07;;;;;;;1.30;0.50;;;13.10;99.90;;;;;;5113242;27;20392;-84
2022/02/17 00:06:33;;;;;;;0.88;0.55;;;13.30;99.90;;;;;;5095118;28;20381;-82
2022/02/17 00:08:58;;;;;;;0.73;0.60;;;13.30;99.90;;;;;;5110157;27;20471;-83
2022/02/17 00:11:24;;;;;;;1.50;0.70;;;13.30;99.90;;;;;;5105139;28;20417;-83
2022/02/17 00:13:50;;;;;;;1.60;0.60;;;13.30;99.90;;;;;;5093471;28;20382;-84
2022/02/17 00:16:16;;;;;;;1.30;0.50;;;13.30;99.90;;;;;;5095792;27;20401;-82
2022/02/17 00:18:42;;;;;;;0.60;0.50;;;13.20;99.90;;;;;;5094453;27;20493;-82
2022/02/17 00:21:08;;;;;;;1.52;0.60;;;13.20;99.90;;;;;;5107038;27;20468;-80
2022/02/17 00:23:34;;;;;;;2.10;0.60;;;13.20;99.90;;;;;;5114487;27;20454;-82
2022/02/17 00:26:00;;;;;;;0.65;0.55;;;13.20;99.90;;;;;;5112183;28;20474;-80
2022/02/17 00:28:25;;;;;;;0.40;0.40;;;13.20;99.90;;;;;;5112885;28;20911;-82
2022/02/17 00:30:51;;;;;;;0.60;0.50;;;13.20;99.90;;;;;;5113001;28;20801;-82
2022/02/17 00:33:17;;;;;;;1.23;0.40;;;13.20;99.90;;;;;;5111562;28;20375;-81
2022/02/17 00:35:43;;;;;;;0.50;0.50;;;13.20;99.90;;;;;;5112201;28;20399;-82
2022/02/17 00:38:09;;;;;;;0.52;0.47;;;13.40;99.90;;;;;;5112266;28;20379;-82
2022/02/17 00:40:35;;;;;;;1.10;0.50;;;13.20;99.90;;;;;;5127042;27;20392;-81
2022/02/17 00:43:00;;;;;;;0.57;0.37;;;13.20;99.90;;;;;;5132473;27;20365;-81
2022/02/17 00:45:26;;;;;;;1.60;0.50;;;13.20;99.90;;;;;;5133740;27;20409;-82
2022/02/17 00:47:51;;;;;;;0.90;0.50;;;13.00;99.90;;;;;;5132083;27;20863;-81
2022/02/17 00:50:17;;;;;;;0.70;0.40;;;13.10;99.90;;;;;;5096687;28;20466;-81
2022/02/17 00:52:43;;;;;;;2.38;0.95;;;13.10;99.90;;;;;;5112492;28;20875;-82
2022/02/17 00:55:09;;;;;;;7.63;2.30;;;13.20;99.90;;;;;;5093637;28;20399;-82
2022/02/17 00:57:35;;;;;;;4.97;1.93;;;11.50;99.90;;;;;;5111190;28;20930;-82
2022/02/17 01:00:02;;;;;;;7.40;1.90;;;10.60;99.90;;;;;;5091419;28;20383;-81
2022/02/17 01:02:54;;;;;;;7.25;2.13;;;9.90;99.90;;;;;;5109869;28;20816;-83
2022/02/17 01:05:20;;;;;;;5.68;1.80;;;9.50;99.90;;;;;;5093022;28;20401;-80
2022/02/17 01:07:46;;;;;;;7.30;2.10;;;9.20;99.90;;;;;;5093779;28;20868;-81
2022/02/17 01:10:12;;;;;;;5.40;2.10;;;9.10;99.90;;;;;;5111575;28;20371;-82
2022/02/17 01:12:38;;;;;;;8.13;2.50;;;9.00;99.90;;;;;;5110815;28;20375;-81
2022/02/17 01:15:04;;;;;;;6.77;2.40;;;8.90;99.90;;;;;;5111355;28;20394;-82
2022/02/17 01:17:29;;;;;;;9.23;2.53;;;8.90;99.90;;;;;;5110905;28;20493;-81
2022/02/17 01:19:55;;;;;;;8.53;2.00;;;8.90;99.90;;;;;;5110912;28;20868;-82
2022/02/17 01:22:21;;;;;;;4.45;1.90;;;8.90;99.90;;;;;;5111909;28;20465;-82
2022/02/17 01:24:46;;;;;;;5.68;1.77;;;8.80;99.90;;;;;;5111735;28;20363;-81
2022/02/17 01:27:12;;;;;;;4.47;1.80;;;8.70;99.90;;;;;;5094028;28;20433;-81
2022/02/17 01:29:37;;;;;;;5.45;1.67;;;8.70;99.90;;;;;;5093440;28;20392;-82
2022/02/17 01:32:03;;;;;;;3.30;1.63;;;8.70;99.90;;;;;;5111932;28;20378;-80
2022/02/17 01:34:29;;;;;;;7.40;1.80;;;8.60;99.90;;;;;;5111645;28;20425;-81
2022/02/17 01:36:55;;;;;;;5.43;1.67;;;8.50;99.90;;;;;;5093485;28;20427;-80
2022/02/17 01:39:20;;;;;;;5.60;1.97;;;8.60;99.90;;;;;;5111606;28;20382;-81
2022/02/17 01:41:46;;;;;;;6.72;2.20;;;8.50;99.90;;;;;;5113924;28;20848;-81
2022/02/17 01:44:12;;;;;;;7.10;2.10;;;8.50;99.90;;;;;;5113349;28;20371;-80
2022/02/17 01:46:40;;;;;;;4.75;1.58;;;8.50;99.90;;;;;;5112386;28;20371;-81
2022/02/17 01:49:07;;;;;;;5.30;2.10;;;8.50;99.90;;;;;;5093429;28;20437;-81
2022/02/17 01:51:32;;;;;;;5.32;1.92;;;8.70;99.90;;;;;;5112100;28;20399;-81
2022/02/17 01:54:03;;;;;;;6.43;2.43;;;8.70;99.90;;;;;;5111278;28;20367;-81
2022/02/17 01:56:32;;;;;;;5.90;2.20;;;8.70;99.90;;;;;;5112587;28;20391;-81
2022/02/17 01:59:02;;;;;;;7.20;2.40;;;8.60;99.90;;;;;;5112578;28;20453;-81
2022/02/17 02:01:29;;;;;;;5.80;2.07;;;8.70;99.90;;;;;;5113030;28;20442;-80
2022/02/17 02:03:54;;;;;;;6.03;2.42;;;8.80;99.90;;;;;;5094746;28;20382;-80
2022/02/17 02:06:20;;;;;;;5.93;2.13;;;8.80;99.90;;;;;;5112385;28;20453;-82
2022/02/17 02:08:46;;;;;;;9.53;2.50;;;8.80;99.90;;;;;;5112264;28;20371;-81
2022/02/17 02:11:12;;;;;;;7.23;2.27;;;8.90;99.90;;;;;;5094031;28;20375;-80
2022/02/17 02:13:37;;;;;;;9.40;2.33;;;8.80;99.90;;;;;;5113111;28;20363;-80
2022/02/17 02:16:04;;;;;;;6.03;2.13;;;8.80;99.90;;;;;;5113182;28;20401;-82
2022/02/17 02:18:30;;;;;;;7.28;2.20;;;8.90;99.90;;;;;;5095252;28;20371;-80
2022/02/17 02:20:57;;;;;;;6.75;2.15;;;8.80;99.90;;;;;;5113002;28;20389;-81
2022/02/17 02:23:23;;;;;;;9.63;2.75;;;8.90;99.90;;;;;;5113723;28;20386;-80
2022/02/17 02:25:51;;;;;;;9.85;2.70;;;8.70;99.90;;;;;;5112970;28;20394;-80
2022/02/17 02:28:19;;;;;;;6.78;2.28;;;8.60;99.90;;;;;;5113670;28;20857;-80
2022/02/17 02:30:46;;;;;;;8.07;2.75;;;8.60;99.90;;;;;;5113196;28;20367;-81
2022/02/17 02:33:12;;;;;;;9.82;2.97;;;8.60;99.90;;;;;;5114213;28;20922;-80
2022/02/17 02:35:39;;;;;;;9.90;3.03;;;8.60;99.90;;;;;;5113298;28;20493;-80
2022/02/17 02:38:05;;;;;;;12.45;3.17;;;8.50;99.90;;;;;;5113700;28;20861;-80
2022/02/17 02:40:30;;;;;;;11.55;3.58;;;8.50;99.90;;;;;;5111398;28;20864;-80
2022/02/17 02:42:56;;;;;;;11.23;3.60;;;8.60;99.90;;;;;;5112435;28;20362;-80
2022/02/17 02:45:21;;;;;;;11.93;3.33;;;8.60;99.90;;;;;;5112520;28;20459;-81
2022/02/17 02:47:47;;;;;;;8.82;3.05;;;8.60;99.90;;;;;;5094421;28;20402;-80
2022/02/17 02:50:13;;;;;;;8.33;3.03;;;8.60;99.90;;;;;;5095612;28;20397;-80
2022/02/17 02:52:38;;;;;;;12.10;3.37;;;8.60;99.90;;;;;;5113130;28;20378;-81
2022/02/17 02:55:04;;;;;;;13.07;3.45;;;8.60;99.90;;;;;;5094314;28;20817;-81
2022/02/17 02:57:30;;;;;;;11.00;3.10;;;8.70;99.90;;;;;;5112343;28;20390;-80
2022/02/17 02:59:55;;;;;;;12.97;2.97;;;8.80;99.90;;;;;;5115222;28;20402;-80
2022/02/17 03:02:21;;;;;;;16.47;3.40;;;8.90;99.90;;;;;;5113729;28;20880;-80
2022/02/17 03:04:47;;;;;;;10.88;3.85;;;8.90;99.90;;;;;;5115269;28;20494;-80
2022/02/17 03:07:12;;;;;;;9.67;3.43;;;8.80;99.90;;;;;;5118468;28;20393;-80
2022/02/17 03:09:38;;;;;;;7.67;2.70;;;8.80;99.90;;;;;;5121235;28;20370;-80
2022/02/17 03:12:04;;;;;;;9.25;3.30;;;8.90;99.90;;;;;;5097723;28;20872;-80
2022/02/17 03:14:29;;;;;;;8.23;2.88;;;8.90;99.90;;;;;;5098035;28;20400;-81
2022/02/17 03:16:55;;;;;;;9.03;3.17;;;8.90;99.90;;;;;;5098150;28;20390;-80
2022/02/17 03:19:20;;;;;;;10.25;2.65;;;9.00;99.90;;;;;;5099402;28;20437;-82
2022/02/17 03:21:46;;;;;;;10.43;2.77;;;9.10;99.90;;;;;;5116690;28;20383;-81
2022/02/17 03:24:12;;;;;;;8.43;3.00;;;9.10;99.90;;;;;;5115718;28;20418;-81
2022/02/17 03:26:37;;;;;;;10.90;3.50;;;9.30;99.90;;;;;;5116043;28;20740;-80
2022/02/17 03:29:03;;;;;;;9.43;2.90;;;9.30;99.90;;;;;;5115360;28;20443;-81
2022/02/17 03:31:29;;;;;;;10.73;3.07;;;9.30;99.90;;;;;;5097686;28;20727;-81
2022/02/17 03:33:55;;;;;;;9.73;3.00;;;9.30;99.90;;;;;;5115678;28;20374;-81
2022/02/17 03:36:20;;;;;;;10.15;3.28;;;9.40;99.90;;;;;;5116867;28;20421;-80
2022/02/17 03:38:46;;;;;;;6.85;2.45;;;9.30;99.90;;;;;;5097092;28;20716;-80
2022/02/17 03:41:11;;;;;;;6.63;2.70;;;9.30;99.90;;;;;;5117345;28;20395;-81
2022/02/17 03:43:37;;;;;;;5.32;2.38;;;9.30;99.90;;;;;;5116258;28;20366;-81
2022/02/17 03:46:03;;;;;;;7.17;2.30;;;9.20;99.90;;;;;;5115854;28;20370;-82
2022/02/17 03:48:28;;;;;;;7.60;2.60;;;9.10;99.90;;;;;;5115277;28;20373;-81
2022/02/17 03:50:54;;;;;;;8.35;2.50;;;9.10;99.90;;;;;;5116106;28;20417;-82
2022/02/17 03:53:20;;;;;;;7.07;2.40;;;9.10;99.90;;;;;;5098376;28;20382;-81
2022/02/17 03:55:45;;;;;;;8.73;2.67;;;8.90;99.90;;;;;;5118212;28;20391;-81
2022/02/17 03:59:00;;;;;;;8.10;2.67;;;8.90;99.90;;;;;;5099014;28;20901;-82
2022/02/17 04:00:56;;;;;;;7.57;2.80;;;9.00;99.90;;;;;;5116583;28;20371;-80
2022/02/17 04:03:22;;;;;;;11.10;3.73;;;8.90;99.90;;;;;;5117337;28;20386;-82
2022/02/17 04:05:48;;;;;;;10.85;3.05;;;8.90;99.90;;;;;;5118012;28;20367;-82
2022/02/17 04:08:14;;;;;;;8.33;3.23;;;9.00;99.90;;;;;;5114508;28;20467;-81
2022/02/17 04:10:40;;;;;;;8.25;2.85;;;9.10;99.90;;;;;;5097391;28;20375;-80
2022/02/17 04:13:05;;;;;;;10.10;2.83;;;9.20;99.90;;;;;;5117395;28;20378;-82
2022/02/17 04:15:31;;;;;;;8.57;2.90;;;9.20;99.90;;;;;;5118232;28;20414;-80
2022/02/17 04:17:57;;;;;;;9.60;2.90;;;9.20;99.90;;;;;;5094774;28;21046;-81
2022/02/17 04:20:22;;;;;;;9.70;3.35;;;9.40;99.90;;;;;;5114290;28;20366;-82
2022/02/17 04:22:48;;;;;;;6.73;2.00;;;9.60;99.90;;;;;;5095287;28;20485;-81
2022/02/17 04:25:13;;;;;;;3.15;1.13;;;9.40;99.90;;;;;;5113783;28;20367;-81
2022/02/17 04:27:39;;;;;;;3.13;1.30;;;8.60;99.90;;;;;;5113492;28;20394;-81
2022/02/17 04:30:05;;;;;;;3.53;1.03;;;8.00;99.90;;;;;;5114095;28;20374;-82
2022/02/17 04:32:31;;;;;;;2.77;1.17;;;7.50;99.90;;;;;;5113740;28;20457;-81
2022/02/17 04:34:56;;;;;;;1.93;0.80;;;7.30;99.90;;;;;;5097491;28;20438;-81
2022/02/17 04:37:22;;;;;;;3.45;1.55;;;7.00;99.90;;;;;;5096573;28;20414;-81
2022/02/17 04:39:48;;;;;;;5.10;1.57;;;7.10;99.90;;;;;;5113748;28;20390;-82
2022/02/17 04:42:19;;;;;;;4.67;1.50;;;7.20;99.90;;;;;;5096747;28;20383;-80
2022/02/17 04:44:49;;;;;;;3.40;1.50;;;7.20;99.90;;;;;;5115461;28;20374;-79
2022/02/17 04:47:16;;;;;;;3.22;1.33;;;7.30;99.90;;;;;;5114670;28;20362;-81
2022/02/17 04:49:44;;;;;;;3.03;1.30;;;7.30;99.90;;;;;;5115334;28;22499;-81
2022/02/17 04:52:10;;;;;;;4.53;1.38;;;7.30;99.90;;;;;;5116182;28;20379;-80
2022/02/17 04:54:36;;;;;;;6.97;2.17;;;7.30;99.90;;;;;;5114392;28;20370;-81
2022/02/17 04:57:06;;;;;;;4.32;1.67;;;7.20;99.90;;;;;;5114238;28;20455;-80
2022/02/17 04:59:32;;;;;;;5.63;1.70;;;7.20;99.90;;;;;;5115132;28;20452;-80
2022/02/17 05:01:58;;;;;;;4.78;1.70;;;7.30;99.90;;;;;;5096026;28;20402;-81
2022/02/17 05:04:24;;;;;;;6.50;1.70;;;7.20;99.90;;;;;;5115158;28;20371;-81
2022/02/17 05:06:49;;;;;;;4.73;1.80;;;7.20;99.90;;;;;;5113948;28;21040;-80
2022/02/17 05:09:15;;;;;;;5.50;1.70;;;7.10;99.90;;;;;;5116214;28;20374;-80
2022/02/17 05:11:40;;;;;;;8.87;2.37;;;7.10;99.90;;;;;;5116464;28;20875;-80
2022/02/17 05:14:06;;;;;;;5.47;2.00;;;7.10;99.90;;;;;;5117124;28;20375;-80
2022/02/17 05:16:32;;;;;;;4.38;1.88;;;7.00;99.90;;;;;;5117622;28;20407;-80
2022/02/17 05:18:58;;;;;;;7.45;2.05;;;6.90;99.90;;;;;;5116443;28;20880;-80
2022/02/17 05:21:24;;;;;;;6.77;1.93;;;6.90;99.90;;;;;;5116850;28;20394;-80
2022/02/17 05:23:50;;;;;;;7.33;2.50;;;6.80;99.90;;;;;;5116982;28;20406;-81
2022/02/17 05:26:16;;;;;;;5.63;2.10;;;6.80;99.90;;;;;;5097745;28;20378;-81
2022/02/17 05:28:41;;;;;;;6.68;2.13;;;6.70;99.90;;;;;;5116908;28;20382;-80
2022/02/17 05:31:07;;;;;;;8.95;2.60;;;6.80;99.90;;;;;;5116585;28;20421;-80
2022/02/17 05:33:33;;;;;;;9.05;2.92;;;6.80;99.90;;;;;;5098113;28;20782;-80
2022/02/17 05:35:58;;;;;;;9.10;2.77;;;6.80;99.90;;;;;;5115991;28;20409;-81
2022/02/17 05:38:24;;;;;;;9.77;2.97;;;6.90;99.90;;;;;;5117290;28;20788;-81
2022/02/17 05:40:50;;;;;;;10.63;3.17;;;6.90;99.90;;;;;;5100312;28;20718;-81
2022/02/17 05:43:15;;;;;;;9.57;3.17;;;6.90;99.90;;;;;;5119324;28;20371;-80
2022/02/17 05:45:41;;;;;;;10.63;3.30;;;6.90;99.90;;;;;;5119598;28;20374;-80
2022/02/17 05:48:07;;;;;;;11.10;3.40;;;6.80;99.90;;;;;;5117495;28;20374;-81
2022/02/17 05:50:33;;;;;;;11.77;3.40;;;7.10;99.90;;;;;;5100181;28;20444;-82
2022/02/17 05:52:59;;;;;;;12.88;3.95;;;7.10;99.90;;;;;;5116449;28;20383;-81
2022/02/17 05:55:25;;;;;;;9.65;3.83;;;7.20;99.90;;;;;;5116511;28;20400;-81
2022/02/17 05:57:50;;;;;;;12.07;3.57;;;7.40;99.90;;;;;;5115867;28;20761;-79
2022/02/17 06:00:16;;;;;;;11.07;3.27;;;7.40;99.90;;;;;;5117753;28;20375;-81
2022/02/17 06:02:42;;;;;;;14.43;4.15;;;7.50;99.90;;;;;;5114926;28;20374;-82
2022/02/17 06:05:10;;;;;;;9.82;3.50;;;7.70;99.90;;;;;;5095966;28;20901;-81
2022/02/17 06:07:37;;;;;;;13.15;3.90;;;8.00;99.90;;;;;;5095540;28;20394;-80
2022/02/17 06:10:03;;;;;;;11.32;3.97;;;8.10;99.90;;;;;;5114278;28;20389;-78
2022/02/17 06:12:29;;;;;;;12.50;3.70;;;8.20;99.90;;;;;;5094825;28;20436;-81
2022/02/17 06:14:54;;;;;;;11.82;3.80;;;8.30;99.90;;;;;;5095558;28;20767;-80
2022/02/17 06:17:21;;;;;;;11.67;3.50;;;8.40;99.90;;;;;;5113232;28;20367;-81
2022/02/17 06:19:46;;;;;;;12.73;3.50;;;8.40;99.90;;;;;;5113467;28;20883;-80
2022/02/17 06:22:12;;;;;;;11.48;3.35;;;8.40;99.90;;;;;;5113087;28;20367;-80
2022/02/17 06:24:38;;;;;;;13.15;3.90;;;8.30;99.90;;;;;;5115424;28;20382;-79
2022/02/17 06:27:04;;;;;;;11.60;3.90;;;8.30;99.90;;;;;;5097381;28;20385;-83
2022/02/17 06:29:29;;;;;;;11.60;3.70;;;8.30;99.90;;;;;;5096284;28;20799;-81
2022/02/17 06:31:55;;;;;;;13.13;3.97;;;8.30;99.90;;;;;;5115258;28;20382;-81
2022/02/17 06:34:21;;;;;;;12.55;4.25;;;8.30;99.90;;;;;;5115871;28;20363;-80
2022/02/17 06:36:49;;;;;;;12.82;3.90;;;8.30;99.90;;;;;;5114056;28;20387;-80
2022/02/17 06:39:15;;;;;;;12.48;4.38;;;8.30;99.90;;;;;;5095851;28;20794;-80
2022/02/17 06:41:41;;;;;;;14.85;4.10;;;8.40;99.90;;;;;;5114163;28;20466;-80
2022/02/17 06:44:07;;;;;;;15.98;4.22;;;8.40;99.90;;;;;;5114659;28;20386;-80
2022/02/17 06:46:34;;;;;;;14.50;4.55;;;8.50;99.90;;;;;;5114028;28;20876;-79
2022/02/17 06:49:00;;;;;;;11.40;4.40;;;8.40;99.90;;;;;;5112621;28;20367;-81
2022/02/17 06:51:27;;;;;;;15.50;4.30;;;8.50;99.90;;;;;;5094313;28;20374;-80
2022/02/17 06:53:53;;;;;;;12.05;3.70;;;8.70;99.90;;;;;;5114029;28;20393;-80
2022/02/17 06:56:19;;;;;;;11.25;3.92;;;8.70;99.90;;;;;;5093701;28;20899;-79
2022/02/17 06:58:46;;;;;;;11.20;3.50;;;8.70;99.90;;;;;;5111902;28;20393;-80
2022/02/17 07:01:12;;;;;;;11.20;3.97;;;8.70;99.90;;;;;;5096871;28;20388;-81
2022/02/17 07:03:38;;;;;;;11.55;3.60;;;8.70;99.90;;;;;;5112681;28;20363;-80
2022/02/17 07:06:04;;;;;;;16.90;4.28;;;8.70;99.90;;;;;;5112547;28;20385;-81
2022/02/17 07:08:29;;;;;;;15.23;4.10;;;8.80;99.90;;;;;;5111398;28;20383;-83
2022/02/17 07:11:03;;;;;;;10.73;4.03;;;8.80;99.90;;;;;;5112300;28;20378;-81
2022/02/17 07:13:30;;;;;;;13.93;3.65;;;8.90;99.90;;;;;;5114383;28;20363;-82
2022/02/17 07:15:57;;;;;;;10.00;3.47;;;8.90;99.90;;;;;;5094846;28;20402;-82
2022/02/17 07:18:25;;;;;;;15.07;4.00;;;8.90;99.90;;;;;;5096028;28;20452;-81
2022/02/17 07:20:55;;;;;;;14.10;4.18;;;8.90;99.90;;;;;;5095893;28;20383;-82
2022/02/17 07:23:23;;;;;;;12.45;4.18;;;8.90;99.90;;;;;;5094697;28;20394;-80
2022/02/17 07:25:49;;;;;;;12.05;3.70;;;9.00;99.90;;;;;;5114213;28;20507;-81
2022/02/17 07:28:16;;;;;;;11.77;4.03;;;9.00;99.90;;;;;;5096262;28;20470;-82
2022/02/17 07:30:44;;;;;;;14.57;4.20;;;9.20;99.90;;;;;;5112859;28;20381;-83
2022/02/17 07:33:10;;;;;;;10.90;3.50;;;9.30;99.90;;;;;;5113183;28;20386;-81
2022/02/17 07:35:36;;;;;;;13.70;4.47;;;9.30;99.90;;;;;;5113056;28;20450;-82
2022/02/17 07:38:02;;;;;;;10.75;4.10;;;9.30;99.90;;;;;;5112106;28;20375;-82
2022/02/17 07:40:28;;;;;;;14.00;3.53;;;9.60;99.90;;;;;;5112545;28;20390;-82
2022/02/17 07:42:55;;;;;;;9.30;3.55;;;9.60;99.90;;;;;;5112264;28;20431;-83
2022/02/17 07:45:21;;;;;;;12.27;4.18;;;9.60;99.90;;;;;;5113240;28;20383;-82
2022/02/17 07:47:48;;;;;;;10.35;3.47;;;9.80;99.90;;;;;;5113151;28;20416;-81
2022/02/17 07:50:19;;;;;;;11.80;4.10;;;9.90;99.90;;;;;;5094381;28;20382;-81
2022/02/17 07:52:45;;;;;;;13.85;3.80;;;9.70;99.90;;;;;;5109817;28;20902;-82
2022/02/17 07:55:12;;;;;;;11.38;3.63;;;9.80;99.90;;;;;;5124986;27;20429;-83
2022/02/17 07:57:38;;;;;;;12.63;3.75;;;9.70;99.90;;;;;;5111773;28;20395;-81
2022/02/17 08:00:07;;;;;;;13.15;3.60;;;9.70;99.90;;;;;;5115960;28;20382;-81
2022/02/17 08:02:33;;;;;;;11.82;3.95;;;9.70;99.90;;;;;;5097821;28;20386;-81
2022/02/17 08:04:59;;;;;;;12.48;3.80;;;9.60;99.90;;;;;;5116043;28;20377;-81
2022/02/17 08:07:25;;;;;;;11.30;3.60;;;9.70;99.90;;;;;;5116749;28;20363;-81
2022/02/17 08:09:51;;;;;;;12.10;3.35;;;9.70;99.90;;;;;;5121722;27;20375;-83
2022/02/17 08:12:18;;;;;;;9.35;2.90;;;9.70;99.90;;;;;;5135724;27;20460;-81
2022/02/17 08:14:44;;;;;;;11.15;3.72;;;9.70;99.90;;;;;;5117634;27;20457;-81
2022/02/17 08:17:09;;;;;;;11.18;3.90;;;9.80;99.90;;;;;;5126705;27;20407;-81
2022/02/17 08:19:35;;;;;;;13.73;3.60;;;9.80;99.90;;;;;;5115793;28;20371;-81
2022/02/17 08:22:02;;;;;;;15.43;4.13;;;9.80;99.90;;;;;;5114922;28;20428;-81
2022/02/17 08:24:28;;;;;;;12.43;3.63;;;9.90;99.90;;;;;;5096716;28;20491;-82
2022/02/17 08:26:57;;;;;;;10.67;3.37;;;9.90;99.90;;;;;;5113948;28;20367;-82
2022/02/17 08:29:26;;;;;;;10.25;3.28;;;9.90;99.90;;;;;;5096157;28;20444;-80
2022/02/17 08:31:52;;;;;;;9.15;3.30;;;9.90;99.90;;;;;;5095363;28;20394;-81
2022/02/17 08:34:19;;;;;;;10.10;3.17;;;10.00;99.90;;;;;;5114083;28;20375;-81
2022/02/17 08:36:45;;;;;;;11.93;3.65;;;10.00;99.90;;;;;;5111997;28;20946;-80
2022/02/17 08:39:10;;;;;;;9.50;3.40;;;10.10;99.90;;;;;;5113678;28;20390;-82
2022/02/17 08:41:37;;;;;;;10.88;4.00;;;10.10;99.90;;;;;;5104580;28;20388;-81
2022/02/17 08:44:04;;;;;;;8.70;3.20;;;10.10;99.90;;;;;;5094038;28;20426;-81
2022/02/17 08:46:30;;;;;;;11.90;3.58;;;10.10;99.90;;;;;;5075516;28;20380;-80
2022/02/17 08:48:56;;;;;;;11.07;3.05;;;10.10;99.90;;;;;;5093667;28;20380;-81
2022/02/17 08:51:24;;;;;;;9.53;2.97;;;10.10;99.90;;;;;;5075998;28;20388;-82
2022/02/17 08:53:49;;;;;;;10.93;3.55;;;10.10;99.90;;;;;;5093634;28;20766;-81
2022/02/17 08:56:15;;;;;;;13.13;3.35;;;10.10;99.90;;;;;;5093832;28;20404;-82
2022/02/17 08:58:41;;;;;;;8.18;2.78;;;10.10;99.90;;;;;;5094103;28;20799;-82
2022/02/17 09:01:06;;;;;;;9.43;2.70;;;10.00;99.90;;;;;;5094348;28;20380;-81
2022/02/17 09:03:32;;;;;;;11.30;2.93;;;10.10;99.90;;;;;;5093715;28;20956;-82
2022/02/17 09:06:00;;;;;;;10.15;3.10;;;10.10;99.90;;;;;;5094837;28;20377;-82
2022/02/17 09:08:28;;;;;;;9.13;2.88;;;10.30;99.90;;;;;;5116680;27;21232;-85
2022/02/17 09:10:56;;;;;;;9.30;3.10;;;10.30;99.90;;;;;;5127596;27;20361;-83
2022/02/17 09:13:22;;;;;;;10.60;3.63;;;10.30;99.90;;;;;;5134761;27;20433;-82
2022/02/17 09:15:48;;;;;;;10.20;3.22;;;10.20;99.90;;;;;;5110903;28;20442;-84
2022/02/17 09:18:14;;;;;;;8.70;2.90;;;10.10;99.90;;;;;;5115017;27;20390;-81
2022/02/17 09:20:40;;;;;;;10.27;3.30;;;10.20;99.90;;;;;;5108126;27;20446;-81
2022/02/17 09:23:06;;;;;;;12.65;2.90;;;10.20;99.90;;;;;;5094004;28;20700;-81
2022/02/17 09:25:32;;;;;;;10.25;2.95;;;10.20;99.90;;;;;;5093300;28;20373;-81
2022/02/17 09:27:58;;;;;;;8.70;2.88;;;10.20;99.90;;;;;;5113557;27;20399;-82
2022/02/17 09:30:24;;;;;;;7.87;2.67;;;10.20;99.90;;;;;;5123480;27;20382;-82
2022/02/17 09:32:50;;;;;;;8.18;2.60;;;10.20;99.90;;;;;;5111797;28;20410;-83
2022/02/17 09:35:16;;;;;;;7.15;2.60;;;10.30;99.90;;;;;;5112081;28;20761;-82
2022/02/17 09:37:42;;;;;;;7.00;2.53;;;10.20;99.90;;;;;;5110344;28;20496;-82
2022/02/17 09:40:08;;;;;;;10.37;2.60;;;10.20;99.90;;;;;;5111551;27;20996;-81
2022/02/17 09:42:38;;;;;;;7.20;2.40;;;10.20;99.90;;;;;;5133272;27;20731;-82
2022/02/17 09:45:08;;;;;;;6.30;2.40;;;10.10;99.90;;;;;;5098887;28;20737;-83
2022/02/17 09:47:37;;;;;;;9.35;2.40;;;9.90;99.90;;;;;;5111448;28;22040;-81
2022/02/17 09:50:05;;;;;;;8.50;2.55;;;9.70;99.90;;;;;;5098971;28;20397;-81
2022/02/17 09:52:32;;;;;;;9.60;2.70;;;9.60;99.90;;;;;;5092705;28;20481;-82
2022/02/17 09:54:58;;;;;;;11.18;3.10;;;9.50;99.90;;;;;;5092066;28;20416;-81
2022/02/17 09:57:24;;;;;;;10.38;2.88;;;9.50;99.90;;;;;;5093083;28;20372;-81
2022/02/17 09:59:50;;;;;;;8.32;2.67;;;9.50;99.90;;;;;;5093450;28;20381;-83
2022/02/17 10:02:24;;;;;;;9.03;2.70;;;9.50;99.90;;;;;;5074875;28;20400;-82
2022/02/17 10:04:55;;;;;;;7.88;2.38;;;9.40;99.90;;;;;;5092832;28;20396;-82
2022/02/17 10:07:34;;;;;;;7.35;2.85;;;9.30;99.90;;;;;;5073591;28;20446;-81
2022/02/17 10:10:10;;;;;;;5.28;2.50;;;9.40;99.90;;;;;;5108076;28;20396;-82
2022/02/17 10:13:01;;;;;;;7.40;2.00;;;9.40;99.90;;;;;;5093793;28;20373;-79
2022/02/17 10:15:51;;;;;;;8.05;2.55;;;9.50;99.90;;;;;;5074197;28;20408;-82
2022/02/17 10:18:18;;;;;;;8.00;2.65;;;9.50;99.90;;;;;;5092591;28;20380;-83
2022/02/17 10:21:13;;;;;;;9.35;2.30;;;9.70;99.90;;;;;;5108306;28;20897;-80
2022/02/17 10:23:50;;;;;;;6.85;2.40;;;9.80;99.90;;;;;;5106808;28;20415;-83
2022/02/17 10:26:22;;;;;;;9.27;2.63;;;9.80;99.90;;;;;;5087456;28;20409;-80
2022/02/17 10:29:03;;;;;;;8.18;2.97;;;9.90;99.90;;;;;;5112856;28;20824;-81
2022/02/17 10:31:36;;;;;;;8.73;3.10;;;9.90;99.90;;;;;;5096782;28;20391;-80
2022/02/17 10:34:03;;;;;;;8.27;2.70;;;10.00;99.90;;;;;;5107797;28;20409;-82
2022/02/17 10:36:37;;;;;;;8.18;2.80;;;10.20;99.90;;;;;;5112361;28;20410;-83
2022/02/17 10:39:14;;;;;;;7.82;2.63;;;10.20;99.90;;;;;;5117767;27;20399;-84
2022/02/17 10:41:47;;;;;;;6.65;2.33;;;10.10;99.90;;;;;;5124280;27;20363;-84
2022/02/17 10:44:17;;;;;;;9.05;3.10;;;10.00;99.90;;;;;;5088565;28;20385;-82
2022/02/17 10:46:42;;;;;;;7.85;2.80;;;10.00;99.90;;;;;;5106529;28;20436;-84
2022/02/17 10:49:16;;;;;;;8.35;2.80;;;9.90;99.90;;;;;;5131444;27;20401;-83
2022/02/17 10:51:43;;;;;;;9.27;2.55;;;9.90;99.90;;;;;;5074137;28;20900;-83
2022/02/17 10:54:09;;;;;;;8.30;3.00;;;10.00;99.90;;;;;;5092487;28;20372;-83
2022/02/17 10:56:36;;;;;;;8.88;2.95;;;10.10;99.90;;;;;;5075359;28;20408;-82
2022/02/17 10:59:05;;;;;;;10.88;2.80;;;10.10;99.90;;;;;;5073541;28;20380;-83
2022/02/17 11:01:31;;;;;;;8.27;2.67;;;10.10;99.90;;;;;;5093731;28;20373;-83
2022/02/17 11:03:58;;;;;;;8.65;2.55;;;10.10;99.90;;;;;;5114719;28;20387;-83
2022/02/17 11:06:24;;;;;;;7.17;2.43;;;10.00;99.90;;;;;;5114062;28;20381;-82
2022/02/17 11:08:51;;;;;;;7.83;2.60;;;9.90;99.90;;;;;;5125596;27;21135;-83
2022/02/17 11:11:20;;;;;;;7.65;2.42;;;10.00;99.90;;;;;;5090509;28;20396;-82
2022/02/17 11:13:50;;;;;;;7.95;2.33;;;9.80;99.90;;;;;;5076253;28;20390;-83
2022/02/17 11:16:24;;;;;;;9.13;2.67;;;9.70;99.90;;;;;;5093436;28;20405;-83
2022/02/17 11:18:52;;;;;;;6.82;2.40;;;9.60;99.90;;;;;;5108659;28;20402;-82
2022/02/17 11:21:18;;;;;;;6.03;2.10;;;9.60;99.90;;;;;;5102829;28;20393;-83
2022/02/17 11:23:45;;;;;;;6.75;2.65;;;9.50;99.90;;;;;;5110397;28;20478;-85
2022/02/17 11:26:30;;;;;;;6.37;2.30;;;9.50;99.90;;;;;;5091339;28;20817;-84
2022/02/17 11:29:16;;;;;;;7.50;2.53;;;9.60;99.90;;;;;;5101880;28;20401;-82
2022/02/17 11:32:06;;;;;;;5.47;2.28;;;9.70;99.90;;;;;;5113717;28;20367;-82
2022/02/17 11:34:45;;;;;;;5.47;2.00;;;9.70;99.90;;;;;;5097859;28;20379;-83
2022/02/17 11:37:30;;;;;;;6.05;2.30;;;9.70;99.90;;;;;;5113721;28;20398;-83
2022/02/17 11:40:04;;;;;;;6.70;2.45;;;9.70;99.90;;;;;;5113578;28;20397;-83
2022/02/17 11:42:36;;;;;;;5.25;2.00;;;9.60;99.90;;;;;;5094612;28;20399;-84
2022/02/17 11:45:17;;;;;;;6.50;1.98;;;9.70;99.90;;;;;;5116957;27;20387;-82
2022/02/17 11:48:09;;;;;;;7.47;2.10;;;9.70;99.90;;;;;;5116346;28;20386;-84
2022/02/17 11:50:49;;;;;;;5.38;2.03;;;9.90;99.90;;;;;;5095247;28;20374;-84
2022/02/17 11:53:36;;;;;;;7.10;1.83;;;10.00;99.90;;;;;;5112039;28;20437;-81
2022/02/17 11:56:20;;;;;;;5.15;2.17;;;9.90;99.90;;;;;;5112193;28;20443;-82
2022/02/17 11:58:56;;;;;;;5.55;2.25;;;9.70;99.90;;;;;;5113232;28;20882;-82
2022/02/17 12:01:33;;;;;;;6.40;1.70;;;9.70;99.90;;;;;;5114218;28;20406;-84
2022/02/17 12:04:02;;;;;;;3.42;1.55;;;9.70;99.90;;;;;;5114644;28;20378;-83
2022/02/17 12:06:32;;;;;;;5.30;1.83;;;9.60;99.90;;;;;;5112206;28;20382;-83
2022/02/17 12:08:57;;;;;;;3.70;1.52;;;9.40;99.90;;;;;;5115652;28;20428;-81
2022/02/17 12:11:36;;;;;;;4.38;2.00;;;9.40;99.90;;;;;;5113705;28;20414;-81
2022/02/17 12:14:07;;;;;;;4.88;1.48;;;9.40;99.90;;;;;;5096362;28;20393;-82
2022/02/17 12:16:40;;;;;;;5.60;1.85;;;9.50;99.90;;;;;;5114526;28;20468;-82
2022/02/17 12:19:13;;;;;;;6.30;2.47;;;9.60;99.90;;;;;;5097132;28;20393;-81
2022/02/17 12:21:40;;;;;;;5.00;1.95;;;9.70;99.90;;;;;;5086480;28;20391;-80
2022/02/17 12:24:08;;;;;;;4.07;1.67;;;9.60;99.90;;;;;;5101567;28;20465;-81
2022/02/17 12:26:41;;;;;;;5.10;1.43;;;9.50;99.90;;;;;;5113376;28;20387;-82
2022/02/17 12:29:22;;;;;;;5.65;1.80;;;9.30;99.90;;;;;;5114534;28;20725;-82
2022/02/17 12:31:49;;;;;;;4.93;1.60;;;9.40;99.90;;;;;;5114035;28;20409;-82
2022/02/17 12:34:15;;;;;;;4.95;1.77;;;9.30;99.90;;;;;;5115523;28;20382;-81
2022/02/17 12:36:41;;;;;;;3.78;1.40;;;9.30;99.90;;;;;;5095758;28;20406;-82
2022/02/17 12:39:07;;;;;;;3.17;1.13;;;9.30;99.90;;;;;;5113658;28;20401;-82
2022/02/17 12:41:33;;;;;;;2.70;1.33;;;9.40;99.90;;;;;;5095568;28;20399;-81
2022/02/17 12:43:58;;;;;;;5.55;1.30;;;9.50;99.90;;;;;;5114501;28;20462;-81
2022/02/17 12:46:26;;;;;;;3.13;1.20;;;9.50;99.90;;;;;;5114277;28;20385;-81
2022/02/17 12:48:51;;;;;;;2.65;1.38;;;9.60;99.90;;;;;;5092455;28;20395;-79
2022/02/17 12:51:28;;;;;;;4.32;1.40;;;9.50;99.90;;;;;;5112644;28;20362;-81
2022/02/17 12:53:57;;;;;;;6.15;1.80;;;9.30;99.90;;;;;;5113615;28;20449;-79